createdAt,value
2022-09-15T05:31:01.628Z,18.20
2022-09-15T05:34:05.545Z,18.20
2022-09-15T05:37:07.221Z,18.20
2022-09-15T05:40:09.784Z,18.10
2022-09-15T05:43:11.815Z,18.10
2022-09-15T05:46:14.860Z,17.90
2022-09-15T05:49:16.788Z,17.90
2022-09-15T05:52:18.487Z,17.90
2022-09-15T05:55:20.454Z,18.00
2022-09-15T05:58:22.427Z,18.10
2022-09-15T06:01:27.242Z,17.90
2022-09-15T06:04:31.015Z,17.90
2022-09-15T06:07:32.820Z,17.90
2022-09-15T06:10:34.553Z,17.90
2022-09-15T06:50:22.589Z,17.00
2022-09-15T06:53:24.550Z,17.10
2022-09-15T06:56:26.261Z,17.30
2022-09-15T06:59:27.928Z,17.50
2022-09-15T07:02:29.742Z,17.50
2022-09-15T07:05:31.621Z,17.60
2022-09-15T07:08:33.723Z,17.90
2022-09-15T07:11:35.735Z,18.10
2022-09-15T07:14:37.385Z,18.10
2022-09-15T07:17:39.171Z,18.10
2022-09-15T07:20:41.899Z,18.00
2022-09-15T07:23:44.335Z,18.00
2022-09-15T07:26:46.300Z,18.20
2022-09-15T07:29:48.026Z,18.40
2022-09-15T07:32:49.913Z,18.30
2022-09-15T07:35:51.854Z,18.30
2022-09-15T07:38:53.952Z,18.40
2022-09-15T07:41:55.860Z,18.50
2022-09-15T07:44:57.718Z,18.50
2022-09-15T07:47:59.613Z,18.40
2022-09-15T07:51:01.678Z,18.30
2022-09-15T07:54:04.948Z,18.10
2022-09-15T07:57:06.843Z,18.20
2022-09-15T08:00:13.633Z,18.10
2022-09-15T08:03:15.798Z,18.30
2022-09-15T08:06:21.285Z,18.40
2022-09-15T08:09:23.206Z,18.40
2022-09-15T08:12:25.471Z,18.40
2022-09-15T08:15:27.525Z,17.90
2022-09-15T08:18:29.273Z,17.70
2022-09-15T08:21:32.313Z,17.40
2022-09-15T08:24:35.187Z,17.20
2022-09-15T08:27:37.674Z,17.20
2022-09-15T08:30:39.763Z,17.10
2022-09-15T08:33:45.784Z,17.00
2022-09-15T08:36:48.086Z,16.90
2022-09-15T08:39:49.872Z,16.80
2022-09-15T08:42:55.660Z,16.70
2022-09-15T08:46:04.972Z,16.40
2022-09-15T08:49:26.866Z,16.20
2022-09-15T08:52:44.188Z,16.10
2022-09-15T08:55:53.953Z,16.20
2022-09-15T08:58:56.433Z,16.10
2022-09-15T09:02:27.003Z,16.20
2022-09-15T09:05:54.694Z,16.20
2022-09-15T09:09:09.060Z,16.20
2022-09-15T09:12:50.770Z,16.20
2022-09-15T09:16:09.644Z,16.20
2022-09-15T09:19:35.561Z,16.00
2022-09-15T09:22:39.283Z,15.90
2022-09-15T09:25:46.566Z,15.90
2022-09-15T09:28:55.522Z,16.20
2022-09-15T09:31:58.473Z,16.00
2022-09-15T09:35:12.366Z,15.90
2022-09-15T09:38:26.758Z,15.80
2022-09-15T09:41:38.925Z,15.80
2022-09-15T09:44:41.122Z,15.70
2022-09-15T09:47:43.369Z,15.60
2022-09-15T09:50:45.702Z,15.60
2022-09-15T09:53:54.436Z,15.60
2022-09-15T09:57:17.379Z,15.50
2022-09-15T10:00:37.597Z,15.50
2022-09-15T10:03:41.956Z,15.30
2022-09-15T10:06:44.022Z,15.30
2022-09-15T10:09:52.928Z,15.20
2022-09-15T10:12:56.669Z,15.20
2022-09-15T10:16:02.627Z,15.20
2022-09-15T10:19:04.613Z,15.30
2022-09-15T10:22:07.808Z,15.20
2022-09-15T10:25:39.519Z,15.30
2022-09-15T10:29:11.658Z,15.10
2022-09-15T10:32:31.608Z,15.20
2022-09-15T10:35:33.523Z,15.10
2022-09-15T10:38:45.736Z,14.90
2022-09-15T10:42:10.926Z,14.70
2022-09-15T10:45:34.892Z,14.60
2022-09-15T10:48:44.483Z,14.80
2022-09-15T10:52:22.754Z,14.70
2022-09-15T10:55:51.724Z,14.80
2022-09-15T10:59:34.942Z,15.30
2022-09-15T11:03:07.892Z,15.40
2022-09-15T11:06:34.622Z,15.40
2022-09-15T11:09:53.960Z,15.50
2022-09-15T11:13:11.631Z,15.20
2022-09-15T11:16:41.124Z,15.20
2022-09-15T11:20:14.821Z,15.40
2022-09-15T11:23:32.744Z,15.00
2022-09-15T11:26:40.238Z,15.10
2022-09-15T11:30:17.234Z,15.30
2022-09-15T11:33:30.067Z,15.30
2022-09-15T11:36:39.449Z,15.40
2022-09-15T11:40:06.969Z,15.30
2022-09-15T11:43:21.555Z,15.50
2022-09-15T11:46:35.064Z,15.50
2022-09-15T11:50:01.923Z,15.40
2022-09-15T11:53:25.923Z,15.30
2022-09-15T11:56:42.019Z,15.50
2022-09-15T11:59:58.020Z,15.70
2022-09-15T12:03:18.342Z,16.00
2022-09-15T12:06:47.464Z,16.30
2022-09-15T12:09:49.889Z,16.50
2022-09-15T12:12:53.942Z,16.50
2022-09-15T12:15:56.263Z,16.70
2022-09-15T12:19:26.019Z,16.60
2022-09-15T12:23:07.713Z,16.50
2022-09-15T12:26:20.129Z,16.70
2022-09-15T12:29:21.962Z,17.20
2022-09-15T12:32:33.311Z,17.50
2022-09-15T12:35:35.288Z,17.80
2022-09-15T12:38:36.990Z,17.80
2022-09-15T12:41:47.398Z,17.70
2022-09-15T12:44:55.964Z,17.50
2022-09-15T12:48:06.107Z,17.40
2022-09-15T12:51:10.477Z,17.60
2022-09-15T12:54:34.989Z,17.30
2022-09-15T12:57:37.952Z,16.50
2022-09-15T13:01:00.642Z,16.60
2022-09-15T13:04:03.592Z,17.10
2022-09-15T13:07:20.994Z,17.80
2022-09-15T13:10:30.721Z,18.20
2022-09-15T13:13:44.798Z,18.30
2022-09-15T13:17:07.813Z,18.70
2022-09-15T13:20:16.758Z,18.80
2022-09-15T13:23:23.938Z,18.60
2022-09-15T13:26:27.626Z,18.40
2022-09-15T13:29:32.884Z,18.30
2022-09-15T13:32:44.422Z,18.20
2022-09-15T13:36:13.353Z,18.30
2022-09-15T13:39:36.943Z,18.70
2022-09-15T13:43:01.382Z,18.70
2022-09-15T13:46:42.976Z,18.80
2022-09-15T13:50:07.793Z,18.90
2022-09-15T13:53:30.546Z,18.90
2022-09-15T13:56:39.536Z,18.70
2022-09-15T13:59:41.695Z,18.40
2022-09-15T14:02:49.770Z,18.30
2022-09-15T14:05:53.175Z,17.80
2022-09-15T14:08:58.610Z,17.90
2022-09-15T14:12:08.798Z,17.90
2022-09-15T14:15:17.768Z,17.90
2022-09-15T14:18:20.166Z,18.00
2022-09-15T14:21:26.487Z,18.00
2022-09-15T14:24:31.109Z,18.00
2022-09-15T14:27:35.223Z,18.00
2022-09-15T14:30:38.601Z,17.90
2022-09-15T14:33:40.753Z,17.70
2022-09-15T14:36:42.946Z,17.60
2022-09-15T14:39:56.514Z,17.80
2022-09-15T14:42:58.633Z,18.20
2022-09-15T14:46:19.314Z,18.30
2022-09-15T14:49:22.110Z,18.40
2022-09-15T14:52:29.419Z,18.60
2022-09-15T14:55:52.030Z,18.60
2022-09-15T14:58:58.294Z,18.50
2022-09-15T15:02:24.423Z,18.60
2022-09-15T15:05:33.663Z,18.60
2022-09-15T15:08:51.351Z,18.80
2022-09-15T15:11:57.484Z,18.90
2022-09-15T15:15:00.513Z,19.00
2022-09-15T15:18:05.896Z,19.10
2022-09-15T15:21:44.569Z,19.20
2022-09-15T15:24:49.914Z,19.20
2022-09-15T15:27:54.241Z,19.00
2022-09-15T15:31:24.490Z,18.70
2022-09-15T15:34:26.274Z,18.80
2022-09-15T15:37:30.907Z,18.90
2022-09-15T15:40:33.928Z,18.90
2022-09-15T15:43:35.906Z,19.00
2022-09-15T15:47:01.452Z,19.00
2022-09-15T15:50:14.392Z,19.10
2022-09-15T15:53:16.655Z,19.00
2022-09-15T15:56:23.824Z,19.00
2022-09-15T15:59:25.497Z,19.20
